createdAt,value
2019-03-11T00:01:53.382Z,40.40
2019-03-11T00:04:22.217Z,39.00
2019-03-11T00:06:50.414Z,40.00
2019-03-11T00:09:18.112Z,40.20
2019-03-11T00:11:45.888Z,40.20
2019-03-11T00:14:13.573Z,41.00
2019-03-11T00:16:41.259Z,41.30
2019-03-11T00:19:08.958Z,40.80
2019-03-11T00:21:36.628Z,41.10
2019-03-11T00:24:04.321Z,41.40
2019-03-11T00:26:32.003Z,41.20
2019-03-11T00:28:59.625Z,41.60
2019-03-11T00:31:27.450Z,41.30
2019-03-11T00:33:55.129Z,41.00
2019-03-11T00:36:22.998Z,40.90
2019-03-11T00:38:50.793Z,40.70
2019-03-11T00:41:18.455Z,40.70
2019-03-11T00:43:46.186Z,40.20
2019-03-11T00:46:13.865Z,40.50
2019-03-11T00:48:41.501Z,40.40
2019-03-11T00:51:09.195Z,40.10
2019-03-11T00:53:36.858Z,39.90
2019-03-11T00:56:04.556Z,40.10
2019-03-11T00:58:32.294Z,40.20
2019-03-11T01:00:59.974Z,40.50
2019-03-11T01:03:27.696Z,40.70
2019-03-11T01:05:55.460Z,40.60
2019-03-11T01:08:23.105Z,41.10
2019-03-11T01:10:50.747Z,40.90
2019-03-11T01:13:18.421Z,41.20
2019-03-11T01:15:46.121Z,42.00
2019-03-11T01:18:13.761Z,41.70
2019-03-11T01:20:41.436Z,41.50
2019-03-11T01:23:09.061Z,40.60
2019-03-11T01:25:36.752Z,41.20
2019-03-11T01:28:04.408Z,41.40
2019-03-11T01:30:33.095Z,41.80
2019-03-11T01:33:00.749Z,41.40
2019-03-11T01:35:29.412Z,41.90
2019-03-11T01:37:57.102Z,41.70
2019-03-11T01:40:24.805Z,42.20
2019-03-11T01:42:52.452Z,42.80
2019-03-11T01:45:20.173Z,42.30
2019-03-11T01:47:47.946Z,41.80
2019-03-11T01:50:15.770Z,42.10
2019-03-11T01:52:43.405Z,42.50
2019-03-11T01:55:11.263Z,41.80
2019-03-11T01:57:39.061Z,41.70
2019-03-11T02:00:09.257Z,41.50
2019-03-11T02:02:36.997Z,42.00
2019-03-11T02:05:04.733Z,42.00
2019-03-11T02:07:32.404Z,41.00
2019-03-11T02:10:00.077Z,41.20
2019-03-11T02:12:28.493Z,40.70
2019-03-11T02:14:56.208Z,41.40
2019-03-11T02:17:23.857Z,42.10
2019-03-11T02:19:51.639Z,42.10
2019-03-11T02:22:19.279Z,42.00
2019-03-11T02:24:47.038Z,41.70
2019-03-11T02:27:14.763Z,41.30
2019-03-11T02:29:42.427Z,41.60
2019-03-11T02:32:10.163Z,40.90
2019-03-11T02:34:37.903Z,41.00
2019-03-11T02:37:05.651Z,41.50
2019-03-11T02:39:33.414Z,41.30
2019-03-11T02:42:01.177Z,41.50
2019-03-11T02:44:28.830Z,41.90
2019-03-11T02:46:56.596Z,42.20
2019-03-11T02:49:24.223Z,43.00
2019-03-11T02:51:51.838Z,42.60
2019-03-11T02:54:19.495Z,42.90
2019-03-11T02:56:47.128Z,42.20
2019-03-11T02:59:14.854Z,43.10
2019-03-11T03:01:59.220Z,43.30
2019-03-11T03:04:37.638Z,44.00
2019-03-11T03:07:05.266Z,44.00
2019-03-11T03:09:32.997Z,44.00
2019-03-11T03:12:00.759Z,44.10
2019-03-11T03:14:28.543Z,44.70
2019-03-11T03:16:56.203Z,45.50
2019-03-11T03:19:23.859Z,46.20
2019-03-11T03:21:51.520Z,45.90
2019-03-11T03:24:19.366Z,45.80
2019-03-11T03:26:46.994Z,46.10
2019-03-11T03:29:14.645Z,46.40
2019-03-11T03:31:42.349Z,46.50
2019-03-11T03:34:09.990Z,46.50
2019-03-11T03:36:37.752Z,46.50
2019-03-11T03:39:06.926Z,46.60
2019-03-11T03:41:34.711Z,46.40
2019-03-11T03:44:02.433Z,47.10
2019-03-11T03:46:30.469Z,47.30
2019-03-11T03:48:58.124Z,47.10
2019-03-11T03:51:25.755Z,47.50
2019-03-11T03:53:53.389Z,47.60
2019-03-11T03:56:21.041Z,47.00
2019-03-11T03:58:48.678Z,47.70
2019-03-11T04:01:16.317Z,48.00
2019-03-11T04:03:44.075Z,47.60
2019-03-11T04:06:11.781Z,47.70
2019-03-11T04:08:39.450Z,47.50
2019-03-11T04:11:07.127Z,47.30
2019-03-11T04:13:34.793Z,47.20
2019-03-11T04:16:02.648Z,47.60
2019-03-11T04:18:55.623Z,47.20
2019-03-11T04:21:23.265Z,47.80
2019-03-11T04:23:51.012Z,47.80
2019-03-11T04:26:18.648Z,47.90
2019-03-11T04:28:46.369Z,47.50
2019-03-11T04:31:13.990Z,47.40
2019-03-11T04:33:41.641Z,48.20
2019-03-11T04:36:09.281Z,48.60
2019-03-11T04:38:38.133Z,49.00
2019-03-11T04:41:05.815Z,48.90
2019-03-11T04:43:33.480Z,49.10
2019-03-11T04:46:01.231Z,48.80
2019-03-11T04:48:28.932Z,48.80
2019-03-11T04:50:56.594Z,49.10
2019-03-11T04:53:24.261Z,49.10
2019-03-11T04:55:51.898Z,49.30
2019-03-11T04:58:19.586Z,49.50
2019-03-11T05:00:47.240Z,49.30
2019-03-11T05:03:14.933Z,49.80
2019-03-11T05:05:42.561Z,49.80
2019-03-11T05:08:10.246Z,50.00
2019-03-11T05:10:37.865Z,50.40
2019-03-11T05:13:05.527Z,50.40
2019-03-11T05:15:33.218Z,50.50
2019-03-11T05:18:00.841Z,50.60
2019-03-11T05:20:28.553Z,50.30
2019-03-11T05:22:56.253Z,50.30
2019-03-11T05:25:23.903Z,50.10
2019-03-11T05:27:54.039Z,49.90
2019-03-11T05:30:21.703Z,49.80
2019-03-11T05:32:49.342Z,49.50
2019-03-11T05:35:18.026Z,49.10
2019-03-11T05:37:45.736Z,48.90
2019-03-11T05:40:13.577Z,49.00
2019-03-11T05:42:41.201Z,49.60
2019-03-11T05:45:10.498Z,48.70
2019-03-11T05:47:38.198Z,48.20
2019-03-11T05:50:06.718Z,46.30
2019-03-11T05:52:34.406Z,47.30
2019-03-11T05:55:03.180Z,47.00
2019-03-11T05:57:30.858Z,46.80
2019-03-11T05:59:59.278Z,45.60
2019-03-11T06:02:28.013Z,46.50
2019-03-11T06:04:56.849Z,47.40
2019-03-11T06:07:24.509Z,47.60
2019-03-11T06:09:52.142Z,46.40
2019-03-11T06:12:19.824Z,46.40
2019-03-11T06:14:47.561Z,46.60
2019-03-11T06:17:15.257Z,46.50
2019-03-11T06:19:42.937Z,45.90
2019-03-11T06:22:19.598Z,46.90
2019-03-11T06:24:47.228Z,50.80
2019-03-11T06:27:14.907Z,52.80
2019-03-11T06:29:42.540Z,54.70
2019-03-11T06:32:10.301Z,55.80
2019-03-11T06:34:37.910Z,57.10
2019-03-11T06:37:05.612Z,57.80
2019-03-11T06:39:33.273Z,59.20
2019-03-11T06:42:00.918Z,60.00
2019-03-11T06:44:28.726Z,59.30
2019-03-11T06:46:56.357Z,61.60
2019-03-11T06:49:24.840Z,61.50
2019-03-11T06:51:52.453Z,63.40
2019-03-11T06:54:20.147Z,64.00
2019-03-11T06:56:47.805Z,63.40
2019-03-11T06:59:15.472Z,63.60
2019-03-11T07:01:43.163Z,64.00
2019-03-11T07:04:10.883Z,62.90
2019-03-11T07:06:38.597Z,63.50
2019-03-11T07:09:07.869Z,63.20
2019-03-11T07:11:35.675Z,64.40
2019-03-11T07:14:03.460Z,63.50
2019-03-11T07:16:31.133Z,63.20
2019-03-11T07:18:58.830Z,63.10
2019-03-11T07:21:26.516Z,61.90
2019-03-11T07:23:54.178Z,61.80
2019-03-11T07:26:22.018Z,61.20
2019-03-11T07:28:49.629Z,62.10
2019-03-11T07:31:17.284Z,61.60
2019-03-11T07:33:44.905Z,61.20
2019-03-11T07:36:12.590Z,61.00
2019-03-11T07:38:40.313Z,60.40
2019-03-11T07:41:08.001Z,59.60
2019-03-11T07:43:35.686Z,59.60
2019-03-11T07:46:03.310Z,59.90
2019-03-11T07:48:30.954Z,59.10
2019-03-11T07:50:58.632Z,59.20
2019-03-11T07:53:26.265Z,60.00
2019-03-11T07:55:53.930Z,59.40
2019-03-11T07:58:21.681Z,59.50
2019-03-11T08:00:53.920Z,59.90
2019-03-11T08:03:18.921Z,60.40
2019-03-11T08:05:46.565Z,60.50
2019-03-11T08:08:14.212Z,60.30
2019-03-11T08:10:41.956Z,60.70
2019-03-11T08:13:09.650Z,60.80
2019-03-11T08:15:37.375Z,61.00
2019-03-11T08:18:05.214Z,61.50
2019-03-11T08:20:32.975Z,62.10
2019-03-11T08:23:00.805Z,60.40
2019-03-11T08:25:28.449Z,59.10
2019-03-11T08:27:56.082Z,58.90
2019-03-11T08:30:23.822Z,57.70
2019-03-11T08:32:51.518Z,56.60
2019-03-11T08:35:19.214Z,55.60
2019-03-11T08:37:46.915Z,53.80
2019-03-11T08:40:14.625Z,54.40
2019-03-11T08:42:42.320Z,55.20
2019-03-11T08:45:11.238Z,53.80
2019-03-11T08:47:38.894Z,53.20
2019-03-11T08:50:07.756Z,52.30
2019-03-11T08:52:35.518Z,53.80
2019-03-11T08:55:05.017Z,51.10
2019-03-11T08:57:32.674Z,50.00
2019-03-11T09:00:00.641Z,51.20
2019-03-11T09:02:28.312Z,50.60
2019-03-11T09:04:56.109Z,49.90
2019-03-11T09:07:23.758Z,49.70
2019-03-11T09:09:51.426Z,50.20
2019-03-11T09:12:19.062Z,51.20
2019-03-11T09:14:46.763Z,49.20
2019-03-11T09:17:14.461Z,49.50
2019-03-11T09:19:42.167Z,48.00
2019-03-11T09:22:09.869Z,47.70
2019-03-11T09:24:37.654Z,48.40
2019-03-11T09:27:05.486Z,47.30
2019-03-11T09:29:33.194Z,47.60
2019-03-11T09:32:01.766Z,46.00
2019-03-11T09:34:29.533Z,47.10
2019-03-11T09:36:57.270Z,47.50
2019-03-11T09:39:24.930Z,44.70
2019-03-11T09:41:52.549Z,44.60
2019-03-11T09:44:20.221Z,42.50
2019-03-11T09:46:47.850Z,44.20
2019-03-11T09:49:15.517Z,43.20
2019-03-11T09:51:43.174Z,43.80
2019-03-11T09:54:10.858Z,44.00
2019-03-11T09:56:43.290Z,43.00
2019-03-11T09:59:08.091Z,42.70
2019-03-11T10:01:35.759Z,43.40
2019-03-11T10:04:03.508Z,41.80
2019-03-11T10:06:31.193Z,41.70
2019-03-11T10:08:58.926Z,42.90
2019-03-11T10:11:26.570Z,43.10
2019-03-11T10:13:54.213Z,43.40
2019-03-11T10:16:21.954Z,43.10
2019-03-11T10:18:50.424Z,43.70
2019-03-11T10:21:18.284Z,40.80
2019-03-11T10:23:46.557Z,40.30
2019-03-11T10:26:16.750Z,40.00
2019-03-11T10:28:44.471Z,41.10
2019-03-11T10:31:12.275Z,43.50
2019-03-11T10:33:40.019Z,42.90
2019-03-11T10:36:07.710Z,43.90
2019-03-11T10:38:35.465Z,44.40
2019-03-11T10:41:03.129Z,43.80
2019-03-11T10:43:30.814Z,46.00
2019-03-11T10:45:58.527Z,44.50
2019-03-11T10:48:36.380Z,42.70
2019-03-11T10:50:55.962Z,44.10
2019-03-11T10:53:23.919Z,43.00
2019-03-11T10:55:51.553Z,40.60
2019-03-11T10:58:19.230Z,40.30
2019-03-11T11:00:46.921Z,39.10
2019-03-11T11:03:14.606Z,40.30
2019-03-11T11:05:42.268Z,37.70
2019-03-11T11:08:09.938Z,38.90
2019-03-11T11:10:37.606Z,38.10
2019-03-11T11:13:05.290Z,39.40
2019-03-11T11:15:32.973Z,39.70
2019-03-11T11:18:00.741Z,41.60
2019-03-11T11:20:28.396Z,42.70
2019-03-11T11:22:56.138Z,41.10
2019-03-11T11:25:23.836Z,42.70
2019-03-11T11:27:51.613Z,42.70
2019-03-11T11:30:20.209Z,43.50
2019-03-11T11:32:47.842Z,44.60
2019-03-11T11:35:15.818Z,44.20
2019-03-11T11:37:43.463Z,44.20
2019-03-11T11:40:13.317Z,44.30
2019-03-11T11:42:41.959Z,44.50
2019-03-11T11:45:11.241Z,42.80
2019-03-11T11:47:38.862Z,42.80
2019-03-11T11:50:08.004Z,44.50
2019-03-11T11:52:35.714Z,43.20
2019-03-11T11:55:04.131Z,42.00
2019-03-11T11:57:31.781Z,41.50
2019-03-11T11:59:59.461Z,41.80
2019-03-11T12:02:27.263Z,41.60
2019-03-11T12:04:54.896Z,42.00
2019-03-11T12:07:22.620Z,40.90
2019-03-11T12:09:50.322Z,39.80
2019-03-11T12:12:30.562Z,39.80
2019-03-11T12:14:59.315Z,40.00
2019-03-11T12:17:27.029Z,38.30
2019-03-11T12:19:54.729Z,35.90
2019-03-11T12:22:22.410Z,35.50
2019-03-11T12:24:50.038Z,36.50
2019-03-11T12:27:17.862Z,34.60
2019-03-11T12:29:45.529Z,36.90
2019-03-11T12:32:13.438Z,35.50
2019-03-11T12:34:59.921Z,35.70
2019-03-11T12:37:27.789Z,35.60
2019-03-11T12:39:55.545Z,35.80
2019-03-11T12:42:23.268Z,35.70
2019-03-11T12:44:53.558Z,35.50
2019-03-11T12:47:20.528Z,36.30
2019-03-11T12:49:48.159Z,36.40
2019-03-11T12:52:15.816Z,35.20
2019-03-11T12:54:43.575Z,33.70
2019-03-11T12:57:11.417Z,35.60
2019-03-11T12:59:40.640Z,34.60
2019-03-11T13:02:08.698Z,33.10
2019-03-11T13:04:36.338Z,35.30
2019-03-11T13:07:04.029Z,34.30
2019-03-11T13:09:31.803Z,33.30
2019-03-11T13:11:59.578Z,33.40
2019-03-11T13:14:28.213Z,34.70
2019-03-11T13:16:55.945Z,33.70
2019-03-11T13:19:24.255Z,35.20
2019-03-11T13:21:52.025Z,32.30
2019-03-11T13:24:19.706Z,33.50
2019-03-11T13:26:47.369Z,34.10
2019-03-11T13:29:15.063Z,34.50
2019-03-11T13:31:42.765Z,34.60
2019-03-11T13:34:10.469Z,33.20
2019-03-11T13:36:38.402Z,32.80
2019-03-11T13:39:06.843Z,33.20
2019-03-11T13:41:35.188Z,32.10
2019-03-11T13:44:02.921Z,32.90
2019-03-11T13:46:30.574Z,34.10
2019-03-11T13:48:58.253Z,34.70
2019-03-11T13:51:25.960Z,34.50
2019-03-11T13:53:53.644Z,35.10
2019-03-11T13:56:21.298Z,32.30
2019-03-11T13:58:49.134Z,34.20
2019-03-11T14:01:16.793Z,34.50
2019-03-11T14:03:44.495Z,34.10
2019-03-11T14:06:12.149Z,33.60
2019-03-11T14:08:39.905Z,35.20
2019-03-11T14:11:07.490Z,32.60
2019-03-11T14:13:35.355Z,33.10
2019-03-11T14:16:03.009Z,32.50
2019-03-11T14:18:30.694Z,32.50
2019-03-11T14:20:58.366Z,33.30
2019-03-11T14:23:26.034Z,32.50
2019-03-11T14:25:53.719Z,33.20
2019-03-11T14:28:21.496Z,33.00
2019-03-11T14:30:49.247Z,32.30
2019-03-11T14:33:17.217Z,33.00
2019-03-11T14:35:45.975Z,32.80
2019-03-11T14:38:13.690Z,33.60
2019-03-11T14:40:41.521Z,32.30
2019-03-11T14:43:09.267Z,33.30
2019-03-11T14:45:37.002Z,34.70
2019-03-11T14:48:04.652Z,33.50
2019-03-11T14:50:32.354Z,32.30
2019-03-11T14:52:59.998Z,33.00
2019-03-11T14:55:28.000Z,33.90
2019-03-11T14:57:55.791Z,35.00
2019-03-11T15:00:23.514Z,35.60
2019-03-11T15:02:51.147Z,38.40
2019-03-11T15:05:18.923Z,41.10
2019-03-11T15:07:46.602Z,47.10
2019-03-11T15:10:14.916Z,47.10
2019-03-11T15:12:42.654Z,48.40
2019-03-11T15:15:12.278Z,46.10
2019-03-11T15:17:40.144Z,48.20
2019-03-11T15:20:09.149Z,46.50
2019-03-11T15:22:36.847Z,45.80
2019-03-11T15:25:23.150Z,45.10
2019-03-11T15:27:50.905Z,44.40
2019-03-11T15:30:18.595Z,44.60
2019-03-11T15:32:46.408Z,42.70
2019-03-11T15:35:14.174Z,41.70
2019-03-11T15:37:41.897Z,40.00
2019-03-11T15:40:10.528Z,40.20
2019-03-11T15:42:38.359Z,40.30
2019-03-11T15:45:07.119Z,40.40
2019-03-11T15:47:34.813Z,39.40
2019-03-11T15:50:02.498Z,39.50
2019-03-11T15:52:30.208Z,39.10
2019-03-11T15:54:57.936Z,39.30
2019-03-11T15:57:25.611Z,38.40
2019-03-11T15:59:53.343Z,37.30
2019-03-11T16:02:21.091Z,37.90
2019-03-11T16:04:48.749Z,38.00
2019-03-11T16:07:16.458Z,37.30
2019-03-11T16:09:44.125Z,36.50
2019-03-11T16:12:11.809Z,36.70
2019-03-11T16:14:48.904Z,36.00
2019-03-11T16:17:09.086Z,35.80
2019-03-11T16:19:36.918Z,36.50
2019-03-11T16:22:04.622Z,36.30
2019-03-11T16:24:32.313Z,36.30
2019-03-11T16:26:59.989Z,35.20
2019-03-11T16:29:27.725Z,34.00
2019-03-11T16:31:55.441Z,35.20
2019-03-11T16:34:23.064Z,34.80
2019-03-11T16:36:50.758Z,35.40
2019-03-11T16:39:18.464Z,35.80
2019-03-11T16:41:46.228Z,35.30
2019-03-11T16:44:13.898Z,34.60
2019-03-11T16:46:41.548Z,35.40
2019-03-11T16:49:09.373Z,35.50
2019-03-11T16:51:37.068Z,34.90
2019-03-11T16:54:04.780Z,35.30
2019-03-11T16:56:32.441Z,34.90
2019-03-11T16:59:00.126Z,35.60
2019-03-11T17:01:28.217Z,35.10
2019-03-11T17:03:55.920Z,35.50
2019-03-11T17:06:23.577Z,35.10
2019-03-11T17:08:51.287Z,35.50
2019-03-11T17:11:19.049Z,35.70
2019-03-11T17:13:46.741Z,35.70
2019-03-11T17:16:14.400Z,36.10
2019-03-11T17:18:42.222Z,35.60
2019-03-11T17:21:09.889Z,35.00
2019-03-11T17:23:37.595Z,35.70
2019-03-11T17:26:05.284Z,35.80
2019-03-11T17:28:33.975Z,35.90
2019-03-11T17:31:01.806Z,35.30
2019-03-11T17:33:29.551Z,35.40
2019-03-11T17:35:57.244Z,36.10
2019-03-11T17:38:24.949Z,35.60
2019-03-11T17:40:52.727Z,36.00
2019-03-11T17:43:20.393Z,35.70
2019-03-11T17:45:48.079Z,35.90
2019-03-11T17:48:15.829Z,35.10
2019-03-11T17:50:43.542Z,35.50
2019-03-11T17:53:19.513Z,35.80
2019-03-11T17:55:40.895Z,35.30
2019-03-11T17:58:08.576Z,35.90
2019-03-11T18:00:39.037Z,35.50
2019-03-11T18:03:06.829Z,35.60
2019-03-11T18:05:34.526Z,35.90
2019-03-11T18:08:03.392Z,36.30
2019-03-11T18:10:31.234Z,36.90
2019-03-11T18:12:59.049Z,37.10
2019-03-11T18:15:26.798Z,36.40
2019-03-11T18:17:54.493Z,36.80
2019-03-11T18:20:22.199Z,36.90
2019-03-11T18:22:49.903Z,37.60
2019-03-11T18:25:17.652Z,36.80
2019-03-11T18:27:45.338Z,37.20
2019-03-11T18:30:15.575Z,37.00
2019-03-11T18:32:44.319Z,36.70
2019-03-11T18:35:12.410Z,37.00
2019-03-11T18:37:40.208Z,37.40
2019-03-11T18:40:09.637Z,38.10
2019-03-11T18:42:37.317Z,37.80
2019-03-11T18:45:05.084Z,37.50
2019-03-11T18:47:32.949Z,38.00
2019-03-11T18:50:00.696Z,38.00
2019-03-11T18:52:28.420Z,38.00
2019-03-11T18:54:56.204Z,37.70
2019-03-11T18:57:23.916Z,37.90
2019-03-11T18:59:51.805Z,37.80
2019-03-11T19:02:19.541Z,38.00
2019-03-11T19:04:47.425Z,37.50
2019-03-11T19:07:15.183Z,38.00
2019-03-11T19:09:43.001Z,37.50
2019-03-11T19:12:10.904Z,38.00
2019-03-11T19:14:38.806Z,36.80
2019-03-11T19:17:06.613Z,37.30
2019-03-11T19:19:45.357Z,37.60
2019-03-11T19:22:03.948Z,37.70
2019-03-11T19:24:32.746Z,37.40
2019-03-11T19:27:00.770Z,37.60
2019-03-11T19:29:28.470Z,37.90
2019-03-11T19:31:56.223Z,37.60
2019-03-11T19:34:24.012Z,38.00
2019-03-11T19:36:51.731Z,37.60
2019-03-11T19:39:19.613Z,37.60
2019-03-11T19:41:47.439Z,37.10
2019-03-11T19:44:15.270Z,37.40
2019-03-11T19:46:42.913Z,37.90
2019-03-11T19:49:10.591Z,38.10
2019-03-11T19:51:38.301Z,38.90
2019-03-11T19:54:06.108Z,38.60
2019-03-11T19:56:33.806Z,38.50
2019-03-11T19:59:01.646Z,38.30
2019-03-11T20:01:29.495Z,38.80
2019-03-11T20:03:57.172Z,38.70
2019-03-11T20:06:24.929Z,38.50
2019-03-11T20:08:52.854Z,38.60
2019-03-11T20:11:20.819Z,38.30
2019-03-11T20:13:48.587Z,38.20
2019-03-11T20:16:16.271Z,38.60
2019-03-11T20:18:44.058Z,38.10
2019-03-11T20:21:11.886Z,38.20
2019-03-11T20:23:39.723Z,38.80
2019-03-11T20:26:07.668Z,38.40
2019-03-11T20:28:35.715Z,38.80
2019-03-11T20:31:03.652Z,38.50
2019-03-11T20:33:31.581Z,37.90
2019-03-11T20:35:59.335Z,38.00
2019-03-11T20:38:27.167Z,38.70
2019-03-11T20:40:54.995Z,38.90
2019-03-11T20:43:22.798Z,39.20
2019-03-11T20:45:50.501Z,38.90
2019-03-11T20:48:18.249Z,39.00
2019-03-11T20:51:04.353Z,39.50
2019-03-11T20:53:32.225Z,39.00
2019-03-11T20:55:59.927Z,39.50
2019-03-11T20:58:27.843Z,39.60
2019-03-11T21:00:55.496Z,39.30
2019-03-11T21:03:23.272Z,40.10
2019-03-11T21:05:51.346Z,40.00
2019-03-11T21:08:19.949Z,39.80
2019-03-11T21:10:47.697Z,39.70
2019-03-11T21:13:15.445Z,40.20
2019-03-11T21:15:43.213Z,39.60
2019-03-11T21:18:11.121Z,39.20
2019-03-11T21:20:38.869Z,39.20
2019-03-11T21:23:06.761Z,38.90
2019-03-11T21:25:34.522Z,39.50
2019-03-11T21:28:02.847Z,39.80
2019-03-11T21:30:30.903Z,40.10
2019-03-11T21:32:58.760Z,40.40
2019-03-11T21:35:26.647Z,40.50
2019-03-11T21:37:54.570Z,40.80
2019-03-11T21:40:22.538Z,41.10
2019-03-11T21:42:50.349Z,40.90
2019-03-11T21:45:18.021Z,41.20
2019-03-11T21:47:45.808Z,40.40
2019-03-11T21:50:15.371Z,40.60
2019-03-11T21:52:43.393Z,40.80
2019-03-11T21:55:11.141Z,40.80
2019-03-11T21:57:39.374Z,40.80
2019-03-11T22:00:09.391Z,41.00
2019-03-11T22:02:39.041Z,41.30
2019-03-11T22:05:06.777Z,41.70
2019-03-11T22:07:34.480Z,41.80
2019-03-11T22:10:03.702Z,42.20
2019-03-11T22:12:31.490Z,42.20
2019-03-11T22:14:59.182Z,41.90
2019-03-11T22:17:27.844Z,42.20
2019-03-11T22:19:55.527Z,42.30
2019-03-11T22:22:23.266Z,43.00
2019-03-11T22:24:50.950Z,43.20
2019-03-11T22:27:18.605Z,43.50
2019-03-11T22:29:46.324Z,43.40
2019-03-11T22:32:14.063Z,43.50
2019-03-11T22:34:42.741Z,44.20
2019-03-11T22:37:10.391Z,44.80
2019-03-11T22:39:38.185Z,45.40
2019-03-11T22:42:05.917Z,46.20
2019-03-11T22:44:33.947Z,46.40
2019-03-11T22:47:01.610Z,46.20
2019-03-11T22:49:29.309Z,46.40
2019-03-11T22:51:56.973Z,46.80
2019-03-11T22:54:24.637Z,46.90
2019-03-11T22:56:52.336Z,46.70
2019-03-11T22:59:20.031Z,46.60
2019-03-11T23:01:47.715Z,46.80
2019-03-11T23:04:15.545Z,47.60
2019-03-11T23:06:43.289Z,47.80
2019-03-11T23:09:10.973Z,47.90
2019-03-11T23:11:39.017Z,47.50
2019-03-11T23:14:06.676Z,47.80
2019-03-11T23:16:34.318Z,47.80
2019-03-11T23:19:02.285Z,47.40
2019-03-11T23:21:29.923Z,47.90
2019-03-11T23:23:57.576Z,47.90
2019-03-11T23:26:25.201Z,48.10
2019-03-11T23:28:52.879Z,48.70
2019-03-11T23:31:20.525Z,48.60
2019-03-11T23:33:48.208Z,49.10
2019-03-11T23:36:15.851Z,49.20
2019-03-11T23:38:43.531Z,48.70
2019-03-11T23:41:11.176Z,48.70
2019-03-11T23:43:38.828Z,48.70
2019-03-11T23:46:06.508Z,48.40
2019-03-11T23:48:34.159Z,48.60
2019-03-11T23:51:01.851Z,48.00
2019-03-11T23:53:29.489Z,47.90
2019-03-11T23:55:57.179Z,48.50
2019-03-11T23:58:24.856Z,48.70
